Погода Чернаводэна неделю

Юго-восточный, Румыния

22 - 28 июня
  • 22июня
    Сегодня
    +16°
    +32°
    Ясно и безоблачно
    ВремяПогодаТемператураВлажностьДавлениеВетер, м/сВероятность осадков
    00:00Ясно и безоблачно+19°C76 %762 мм2.7 м/с2 %
    03:00Ясно и безоблачно+18°C86 %762 мм1.9 м/с2 %
    06:00Ясно и безоблачно+16°C89 %761 мм1.7 м/с2 %
    09:00Ясно и безоблачно+23°C54 %761 мм1.9 м/с2 %
    12:00Ясно и безоблачно+29°C36 %760 мм2.7 м/с2 %
    15:00Ясно и безоблачно+31°C31 %759 мм3.4 м/с2 %
    18:00Ясно и безоблачно+30°C32 %758 мм4.0 м/с2 %
    21:00Ясно и безоблачно+24°C44 %759 мм3.3 м/с2 %
  • 23июня
    Воскресенье
    +17°
    +33°
    Практически безоблачно
    ВремяПогодаТемператураВлажностьДавлениеВетер, м/сВероятность осадков
    00:00Ясно и безоблачно+20°C63 %758 мм3.0 м/с2 %
    03:00Ясно и безоблачно+18°C75 %758 мм2.2 м/с2 %
    06:00Практически безоблачно+17°C88 %758 мм1.9 м/с2 %
    09:00Ясно и безоблачно+23°C58 %758 мм2.8 м/с2 %
    12:00Ясно и безоблачно+30°C35 %758 мм2.7 м/с2 %
    15:00Практически безоблачно+33°C32 %757 мм3.5 м/с2 %
    18:00Ясно и безоблачно+31°C37 %756 мм4.3 м/с2 %
    21:00Практически безоблачно+26°C52 %757 мм3.5 м/с2 %
  • 24июня
    Понедельник
    +19°
    +34°
    Ясно и безоблачно
    ВремяПогодаТемператураВлажностьДавлениеВетер, м/сВероятность осадков
    00:00Небольшая облачность+21°C68 %758 мм2.5 м/с2 %
    03:00Практически безоблачно+18°C81 %758 мм1.6 м/с2 %
    06:00Ясно и безоблачно+17°C92 %758 мм1.5 м/с2 %
    09:00Ясно и безоблачно+24°C50 %758 мм1.9 м/с2 %
    12:00Ясно и безоблачно+31°C37 %758 мм2.2 м/с2 %
    15:00Ясно и безоблачно+33°C33 %757 мм3.2 м/с8 %
    18:00Практически безоблачно+31°C42 %757 мм4.3 м/с27 %
    21:00Небольшая облачность+27°C45 %758 мм2.7 м/с7 %
  • 25июня
    Вторник
    +17°
    +33°
    Ясно и безоблачно
    ВремяПогодаТемператураВлажностьДавлениеВетер, м/сВероятность осадков
    00:00Ясно и безоблачно+22°C52 %759 мм1.8 м/с2 %
    03:00Ясно и безоблачно+21°C69 %759 мм2.1 м/с3 %
    06:00Ясно и безоблачно+21°C54 %760 мм2.6 м/с3 %
    09:00Ясно и безоблачно+25°C45 %761 мм3.5 м/с2 %
    12:00Практически безоблачно+30°C37 %761 мм3.7 м/с8 %
    15:00Ясно и безоблачно+31°C34 %761 мм3.8 м/с15 %
    18:00Ясно и безоблачно+31°C34 %760 мм3.8 м/с25 %
    21:00Облачно с прояснениями+26°C45 %761 мм3.0 м/с2 %
Мы используем cookies
Соглашаюсь